sensor_id;sensor_type;location;lat;lon;timestamp;P1;durP1;ratioP1;P2;durP2;ratioP2
68647;SDS011;55632;51.962;16.116;2023-02-15T00:07:57;42.70;;;21.90;;
68647;SDS011;55632;51.962;16.116;2023-02-15T00:12:57;36.63;;;19.73;;
68647;SDS011;55632;51.962;16.116;2023-02-15T00:18:00;38.47;;;19.58;;
68647;SDS011;55632;51.962;16.116;2023-02-15T00:28:02;42.50;;;23.25;;
68647;SDS011;55632;51.962;16.116;2023-02-15T00:33:02;34.05;;;19.25;;
68647;SDS011;55632;51.962;16.116;2023-02-15T00:38:03;41.20;;;19.60;;
68647;SDS011;55632;51.962;16.116;2023-02-15T00:48:04;40.25;;;20.60;;
68647;SDS011;55632;51.962;16.116;2023-02-15T00:53:05;41.17;;;20.58;;
68647;SDS011;55632;51.962;16.116;2023-02-15T01:03:08;32.53;;;16.58;;
68647;SDS011;55632;51.962;16.116;2023-02-15T01:08:10;35.80;;;18.45;;
68647;SDS011;55632;51.962;16.116;2023-02-15T01:13:12;31.92;;;18.58;;
68647;SDS011;55632;51.962;16.116;2023-02-15T01:18:16;34.20;;;18.77;;
68647;SDS011;55632;51.962;16.116;2023-02-15T01:28:20;32.63;;;17.75;;
68647;SDS011;55632;51.962;16.116;2023-02-15T01:33:21;32.63;;;17.63;;
68647;SDS011;55632;51.962;16.116;2023-02-15T01:43:37;29.05;;;15.80;;
68647;SDS011;55632;51.962;16.116;2023-02-15T01:48:43;29.08;;;15.88;;
68647;SDS011;55632;51.962;16.116;2023-02-15T01:53:48;29.13;;;16.00;;
68647;SDS011;55632;51.962;16.116;2023-02-15T01:59:14;32.35;;;17.40;;
68647;SDS011;55632;51.962;16.116;2023-02-15T02:04:28;30.15;;;17.05;;
68647;SDS011;55632;51.962;16.116;2023-02-15T02:09:34;29.13;;;17.23;;
68647;SDS011;55632;51.962;16.116;2023-02-15T02:14:36;32.67;;;18.15;;
68647;SDS011;55632;51.962;16.116;2023-02-15T02:24:59;30.92;;;16.63;;
68647;SDS011;55632;51.962;16.116;2023-02-15T02:40:36;32.65;;;17.35;;
68647;SDS011;55632;51.962;16.116;2023-02-15T02:50:57;30.25;;;17.77;;
68647;SDS011;55632;51.962;16.116;2023-02-15T03:01:04;34.72;;;17.63;;
68647;SDS011;55632;51.962;16.116;2023-02-15T03:06:08;36.00;;;18.27;;
68647;SDS011;55632;51.962;16.116;2023-02-15T03:11:18;30.70;;;16.48;;
68647;SDS011;55632;51.962;16.116;2023-02-15T03:16:19;32.25;;;16.55;;
68647;SDS011;55632;51.962;16.116;2023-02-15T03:21:32;32.72;;;16.52;;
68647;SDS011;55632;51.962;16.116;2023-02-15T03:26:42;29.27;;;15.82;;
68647;SDS011;55632;51.962;16.116;2023-02-15T03:31:46;31.52;;;17.75;;
68647;SDS011;55632;51.962;16.116;2023-02-15T03:37:11;25.98;;;16.05;;
68647;SDS011;55632;51.962;16.116;2023-02-15T03:42:26;33.00;;;17.75;;
68647;SDS011;55632;51.962;16.116;2023-02-15T03:47:39;33.17;;;17.02;;
68647;SDS011;55632;51.962;16.116;2023-02-15T03:57:44;27.33;;;13.50;;
68647;SDS011;55632;51.962;16.116;2023-02-15T04:08:12;28.15;;;16.05;;
68647;SDS011;55632;51.962;16.116;2023-02-15T04:13:13;32.17;;;15.13;;
68647;SDS011;55632;51.962;16.116;2023-02-15T04:18:14;27.80;;;15.20;;
68647;SDS011;55632;51.962;16.116;2023-02-15T04:23:15;37.25;;;21.02;;
68647;SDS011;55632;51.962;16.116;2023-02-15T04:28:34;28.73;;;14.20;;
68647;SDS011;55632;51.962;16.116;2023-02-15T04:33:35;27.52;;;13.77;;
68647;SDS011;55632;51.962;16.116;2023-02-15T04:38:36;30.67;;;17.27;;
68647;SDS011;55632;51.962;16.116;2023-02-15T04:43:36;31.92;;;15.02;;
68647;SDS011;55632;51.962;16.116;2023-02-15T04:48:37;26.20;;;14.38;;
68647;SDS011;55632;51.962;16.116;2023-02-15T04:53:41;34.13;;;17.60;;
68647;SDS011;55632;51.962;16.116;2023-02-15T04:58:45;37.05;;;16.42;;
68647;SDS011;55632;51.962;16.116;2023-02-15T05:03:46;26.73;;;14.85;;
68647;SDS011;55632;51.962;16.116;2023-02-15T05:08:49;42.08;;;18.83;;
68647;SDS011;55632;51.962;16.116;2023-02-15T05:13:50;48.80;;;21.77;;
68647;SDS011;55632;51.962;16.116;2023-02-15T05:23:52;51.35;;;22.65;;
68647;SDS011;55632;51.962;16.116;2023-02-15T05:28:53;81.45;;;41.38;;
68647;SDS011;55632;51.962;16.116;2023-02-15T05:33:53;70.30;;;38.45;;
68647;SDS011;55632;51.962;16.116;2023-02-15T05:38:54;74.55;;;44.10;;
68647;SDS011;55632;51.962;16.116;2023-02-15T05:43:56;50.70;;;25.33;;
68647;SDS011;55632;51.962;16.116;2023-02-15T05:48:57;27.25;;;13.52;;
68647;SDS011;55632;51.962;16.116;2023-02-15T05:53:57;40.00;;;18.20;;
68647;SDS011;55632;51.962;16.116;2023-02-15T05:59:02;43.88;;;22.15;;
68647;SDS011;55632;51.962;16.116;2023-02-15T06:04:03;42.78;;;19.55;;
68647;SDS011;55632;51.962;16.116;2023-02-15T06:09:06;77.13;;;35.50;;
68647;SDS011;55632;51.962;16.116;2023-02-15T06:14:07;51.05;;;22.40;;
68647;SDS011;55632;51.962;16.116;2023-02-15T06:19:08;59.80;;;24.33;;
68647;SDS011;55632;51.962;16.116;2023-02-15T06:24:09;65.60;;;30.98;;
68647;SDS011;55632;51.962;16.116;2023-02-15T06:29:09;53.95;;;25.95;;
68647;SDS011;55632;51.962;16.116;2023-02-15T06:34:16;45.23;;;21.80;;
68647;SDS011;55632;51.962;16.116;2023-02-15T06:39:20;42.07;;;20.80;;
68647;SDS011;55632;51.962;16.116;2023-02-15T06:44:24;54.80;;;23.92;;
68647;SDS011;55632;51.962;16.116;2023-02-15T06:49:24;40.45;;;20.38;;
68647;SDS011;55632;51.962;16.116;2023-02-15T06:54:25;58.63;;;22.35;;
68647;SDS011;55632;51.962;16.116;2023-02-15T06:59:26;58.67;;;29.17;;
68647;SDS011;55632;51.962;16.116;2023-02-15T07:04:29;147.68;;;48.78;;
68647;SDS011;55632;51.962;16.116;2023-02-15T07:09:36;146.35;;;51.05;;
68647;SDS011;55632;51.962;16.116;2023-02-15T07:14:38;106.90;;;47.10;;
68647;SDS011;55632;51.962;16.116;2023-02-15T07:19:42;94.32;;;38.80;;
68647;SDS011;55632;51.962;16.116;2023-02-15T07:29:43;75.78;;;31.35;;
68647;SDS011;55632;51.962;16.116;2023-02-15T07:34:44;72.63;;;33.45;;
68647;SDS011;55632;51.962;16.116;2023-02-15T07:39:48;89.68;;;33.85;;
68647;SDS011;55632;51.962;16.116;2023-02-15T07:44:49;59.15;;;27.77;;
68647;SDS011;55632;51.962;16.116;2023-02-15T07:49:50;57.17;;;26.17;;
68647;SDS011;55632;51.962;16.116;2023-02-15T07:54:54;55.83;;;25.30;;
68647;SDS011;55632;51.962;16.116;2023-02-15T07:59:58;46.83;;;23.42;;
68647;SDS011;55632;51.962;16.116;2023-02-15T08:05:01;54.45;;;24.08;;
68647;SDS011;55632;51.962;16.116;2023-02-15T08:10:02;45.65;;;23.75;;
68647;SDS011;55632;51.962;16.116;2023-02-15T08:15:02;42.08;;;21.90;;
68647;SDS011;55632;51.962;16.116;2023-02-15T08:20:04;47.22;;;23.23;;
68647;SDS011;55632;51.962;16.116;2023-02-15T08:25:05;43.67;;;21.77;;
68647;SDS011;55632;51.962;16.116;2023-02-15T08:30:07;40.50;;;21.48;;
68647;SDS011;55632;51.962;16.116;2023-02-15T08:40:10;42.13;;;20.83;;
68647;SDS011;55632;51.962;16.116;2023-02-15T08:45:13;40.63;;;20.73;;
68647;SDS011;55632;51.962;16.116;2023-02-15T08:50:14;37.88;;;20.02;;
68647;SDS011;55632;51.962;16.116;2023-02-15T08:55:15;48.63;;;22.55;;
68647;SDS011;55632;51.962;16.116;2023-02-15T09:05:17;45.72;;;20.83;;
68647;SDS011;55632;51.962;16.116;2023-02-15T09:15:19;46.67;;;22.48;;
68647;SDS011;55632;51.962;16.116;2023-02-15T09:20:19;42.33;;;20.33;;
68647;SDS011;55632;51.962;16.116;2023-02-15T09:25:20;46.78;;;21.25;;
68647;SDS011;55632;51.962;16.116;2023-02-15T09:30:21;52.30;;;22.70;;
68647;SDS011;55632;51.962;16.116;2023-02-15T09:40:23;48.08;;;25.70;;
68647;SDS011;55632;51.962;16.116;2023-02-15T09:56:36;47.10;;;23.02;;
68647;SDS011;55632;51.962;16.116;2023-02-15T10:13:16;41.28;;;21.75;;
68647;SDS011;55632;51.962;16.116;2023-02-15T10:18:59;39.17;;;21.30;;
68647;SDS011;55632;51.962;16.116;2023-02-15T10:24:32;40.45;;;22.35;;
68647;SDS011;55632;51.962;16.116;2023-02-15T10:29:56;60.53;;;27.17;;
68647;SDS011;55632;51.962;16.116;2023-02-15T10:40:51;40.60;;;21.88;;
68647;SDS011;55632;51.962;16.116;2023-02-15T11:06:54;43.00;;;22.73;;
68647;SDS011;55632;51.962;16.116;2023-02-15T11:11:59;40.42;;;22.08;;
68647;SDS011;55632;51.962;16.116;2023-02-15T11:17:05;41.05;;;23.63;;
68647;SDS011;55632;51.962;16.116;2023-02-15T11:22:12;39.33;;;22.48;;
68647;SDS011;55632;51.962;16.116;2023-02-15T11:32:27;51.67;;;27.02;;
68647;SDS011;55632;51.962;16.116;2023-02-15T11:37:35;40.60;;;23.65;;
68647;SDS011;55632;51.962;16.116;2023-02-15T11:42:40;43.30;;;22.25;;
68647;SDS011;55632;51.962;16.116;2023-02-15T11:47:42;48.00;;;26.38;;
68647;SDS011;55632;51.962;16.116;2023-02-15T11:52:45;72.13;;;31.55;;
68647;SDS011;55632;51.962;16.116;2023-02-15T12:02:54;42.88;;;22.63;;
68647;SDS011;55632;51.962;16.116;2023-02-15T12:08:02;41.72;;;22.38;;
68647;SDS011;55632;51.962;16.116;2023-02-15T12:13:16;38.88;;;22.02;;
68647;SDS011;55632;51.962;16.116;2023-02-15T12:18:27;37.72;;;21.55;;
68647;SDS011;55632;51.962;16.116;2023-02-15T12:23:39;39.97;;;22.73;;
68647;SDS011;55632;51.962;16.116;2023-02-15T12:28:48;43.15;;;22.92;;
68647;SDS011;55632;51.962;16.116;2023-02-15T12:33:56;37.92;;;21.75;;
68647;SDS011;55632;51.962;16.116;2023-02-15T12:44:20;39.17;;;22.50;;
68647;SDS011;55632;51.962;16.116;2023-02-15T12:49:29;39.83;;;21.92;;
68647;SDS011;55632;51.962;16.116;2023-02-15T12:54:33;42.75;;;23.70;;
68647;SDS011;55632;51.962;16.116;2023-02-15T12:59:48;45.50;;;23.98;;
68647;SDS011;55632;51.962;16.116;2023-02-15T13:05:04;40.65;;;23.15;;
68647;SDS011;55632;51.962;16.116;2023-02-15T13:10:37;42.42;;;23.55;;
68647;SDS011;55632;51.962;16.116;2023-02-15T13:15:53;52.05;;;26.33;;
68647;SDS011;55632;51.962;16.116;2023-02-15T13:21:00;38.75;;;22.90;;
68647;SDS011;55632;51.962;16.116;2023-02-15T13:26:15;39.85;;;24.50;;
68647;SDS011;55632;51.962;16.116;2023-02-15T13:31:23;45.30;;;23.75;;
68647;SDS011;55632;51.962;16.116;2023-02-15T13:36:34;47.13;;;26.90;;
68647;SDS011;55632;51.962;16.116;2023-02-15T13:52:23;38.08;;;21.85;;
68647;SDS011;55632;51.962;16.116;2023-02-15T13:58:02;36.65;;;21.25;;
68647;SDS011;55632;51.962;16.116;2023-02-15T14:04:09;45.63;;;26.23;;
68647;SDS011;55632;51.962;16.116;2023-02-15T14:14:22;40.92;;;23.60;;
68647;SDS011;55632;51.962;16.116;2023-02-15T14:30:19;41.60;;;23.83;;
68647;SDS011;55632;51.962;16.116;2023-02-15T14:35:26;55.28;;;27.25;;
68647;SDS011;55632;51.962;16.116;2023-02-15T15:12:13;57.42;;;30.77;;
68647;SDS011;55632;51.962;16.116;2023-02-15T15:22:38;55.42;;;32.80;;
68647;SDS011;55632;51.962;16.116;2023-02-15T15:27:47;265.45;;;77.95;;
68647;SDS011;55632;51.962;16.116;2023-02-15T15:33:02;46.45;;;26.05;;
68647;SDS011;55632;51.962;16.116;2023-02-15T15:38:33;41.22;;;22.60;;
68647;SDS011;55632;51.962;16.116;2023-02-15T15:49:20;47.05;;;25.95;;
68647;SDS011;55632;51.962;16.116;2023-02-15T15:54:23;60.60;;;34.17;;
68647;SDS011;55632;51.962;16.116;2023-02-15T15:59:27;51.42;;;28.05;;
68647;SDS011;55632;51.962;16.116;2023-02-15T16:04:31;77.60;;;37.22;;
68647;SDS011;55632;51.962;16.116;2023-02-15T16:09:33;67.80;;;37.95;;
68647;SDS011;55632;51.962;16.116;2023-02-15T16:14:38;207.32;;;82.30;;
68647;SDS011;55632;51.962;16.116;2023-02-15T16:19:41;84.13;;;38.17;;
68647;SDS011;55632;51.962;16.116;2023-02-15T16:24:47;117.75;;;72.18;;
68647;SDS011;55632;51.962;16.116;2023-02-15T16:29:58;166.13;;;88.68;;
68647;SDS011;55632;51.962;16.116;2023-02-15T16:35:23;204.13;;;94.63;;
68647;SDS011;55632;51.962;16.116;2023-02-15T16:40:28;123.45;;;55.88;;
68647;SDS011;55632;51.962;16.116;2023-02-15T16:45:42;77.72;;;33.58;;
68647;SDS011;55632;51.962;16.116;2023-02-15T16:50:46;226.98;;;96.00;;
68647;SDS011;55632;51.962;16.116;2023-02-15T16:55:50;226.35;;;115.90;;
68647;SDS011;55632;51.962;16.116;2023-02-15T17:00:59;154.18;;;66.45;;
68647;SDS011;55632;51.962;16.116;2023-02-15T17:06:02;243.80;;;114.30;;
68647;SDS011;55632;51.962;16.116;2023-02-15T17:11:18;181.57;;;87.57;;
68647;SDS011;55632;51.962;16.116;2023-02-15T17:16:45;108.82;;;51.05;;
68647;SDS011;55632;51.962;16.116;2023-02-15T17:21:56;112.47;;;55.03;;
68647;SDS011;55632;51.962;16.116;2023-02-15T17:27:00;185.57;;;96.10;;
68647;SDS011;55632;51.962;16.116;2023-02-15T17:32:10;158.57;;;68.00;;
68647;SDS011;55632;51.962;16.116;2023-02-15T17:37:49;119.40;;;61.50;;
68647;SDS011;55632;51.962;16.116;2023-02-15T17:42:45;112.03;;;54.63;;
68647;SDS011;55632;51.962;16.116;2023-02-15T17:47:49;84.05;;;39.78;;
68647;SDS011;55632;51.962;16.116;2023-02-15T17:52:51;101.55;;;45.10;;
68647;SDS011;55632;51.962;16.116;2023-02-15T17:57:53;86.53;;;38.97;;
68647;SDS011;55632;51.962;16.116;2023-02-15T18:08:13;65.32;;;30.60;;
68647;SDS011;55632;51.962;16.116;2023-02-15T18:18:35;47.25;;;21.33;;
68647;SDS011;55632;51.962;16.116;2023-02-15T18:28:37;212.05;;;72.90;;
68647;SDS011;55632;51.962;16.116;2023-02-15T18:33:39;159.15;;;64.13;;
68647;SDS011;55632;51.962;16.116;2023-02-15T18:38:43;150.38;;;54.92;;
68647;SDS011;55632;51.962;16.116;2023-02-15T18:48:45;55.15;;;25.50;;
68647;SDS011;55632;51.962;16.116;2023-02-15T18:53:48;59.22;;;27.05;;
68647;SDS011;55632;51.962;16.116;2023-02-15T18:58:51;60.15;;;29.48;;
68647;SDS011;55632;51.962;16.116;2023-02-15T19:03:53;69.55;;;32.80;;
68647;SDS011;55632;51.962;16.116;2023-02-15T19:13:55;83.20;;;32.55;;
68647;SDS011;55632;51.962;16.116;2023-02-15T19:23:58;32.05;;;16.33;;
68647;SDS011;55632;51.962;16.116;2023-02-15T19:29:12;61.42;;;28.30;;
68647;SDS011;55632;51.962;16.116;2023-02-15T19:34:21;75.78;;;31.17;;
68647;SDS011;55632;51.962;16.116;2023-02-15T19:44:29;58.28;;;25.63;;
68647;SDS011;55632;51.962;16.116;2023-02-15T19:49:31;51.03;;;23.67;;
68647;SDS011;55632;51.962;16.116;2023-02-15T19:54:33;47.13;;;22.67;;
68647;SDS011;55632;51.962;16.116;2023-02-15T19:59:37;46.67;;;22.55;;
68647;SDS011;55632;51.962;16.116;2023-02-15T20:04:39;52.38;;;23.52;;
68647;SDS011;55632;51.962;16.116;2023-02-15T20:09:40;58.65;;;26.83;;
68647;SDS011;55632;51.962;16.116;2023-02-15T20:14:42;57.42;;;27.35;;
68647;SDS011;55632;51.962;16.116;2023-02-15T20:19:45;69.43;;;29.73;;
68647;SDS011;55632;51.962;16.116;2023-02-15T20:29:47;123.97;;;36.92;;
68647;SDS011;55632;51.962;16.116;2023-02-15T20:34:50;60.60;;;26.35;;
68647;SDS011;55632;51.962;16.116;2023-02-15T20:39:51;114.78;;;39.05;;
68647;SDS011;55632;51.962;16.116;2023-02-15T20:44:52;63.15;;;27.67;;
68647;SDS011;55632;51.962;16.116;2023-02-15T20:49:53;64.57;;;24.52;;
68647;SDS011;55632;51.962;16.116;2023-02-15T20:54:54;45.75;;;20.45;;
68647;SDS011;55632;51.962;16.116;2023-02-15T20:59:55;133.43;;;49.63;;
68647;SDS011;55632;51.962;16.116;2023-02-15T21:04:59;137.95;;;48.20;;
68647;SDS011;55632;51.962;16.116;2023-02-15T21:10:01;99.18;;;38.22;;
68647;SDS011;55632;51.962;16.116;2023-02-15T21:15:02;171.40;;;50.58;;
68647;SDS011;55632;51.962;16.116;2023-02-15T21:25:26;63.50;;;26.13;;
68647;SDS011;55632;51.962;16.116;2023-02-15T21:30:32;142.27;;;46.42;;
68647;SDS011;55632;51.962;16.116;2023-02-15T21:35:33;86.70;;;32.47;;
68647;SDS011;55632;51.962;16.116;2023-02-15T21:40:37;63.55;;;25.75;;
68647;SDS011;55632;51.962;16.116;2023-02-15T21:45:38;63.92;;;25.17;;
68647;SDS011;55632;51.962;16.116;2023-02-15T21:50:56;70.43;;;27.25;;
68647;SDS011;55632;51.962;16.116;2023-02-15T21:56:19;89.38;;;32.90;;
68647;SDS011;55632;51.962;16.116;2023-02-15T22:01:25;76.45;;;29.92;;
68647;SDS011;55632;51.962;16.116;2023-02-15T22:06:27;74.53;;;27.80;;
68647;SDS011;55632;51.962;16.116;2023-02-15T22:11:28;74.28;;;29.00;;
68647;SDS011;55632;51.962;16.116;2023-02-15T22:16:31;48.30;;;22.95;;
68647;SDS011;55632;51.962;16.116;2023-02-15T22:21:32;90.00;;;31.83;;
68647;SDS011;55632;51.962;16.116;2023-02-15T22:26:32;67.32;;;26.50;;
68647;SDS011;55632;51.962;16.116;2023-02-15T22:31:34;57.85;;;24.67;;
68647;SDS011;55632;51.962;16.116;2023-02-15T22:36:35;45.38;;;21.02;;
68647;SDS011;55632;51.962;16.116;2023-02-15T22:41:36;72.03;;;29.65;;
68647;SDS011;55632;51.962;16.116;2023-02-15T22:46:36;59.15;;;26.13;;
68647;SDS011;55632;51.962;16.116;2023-02-15T22:51:39;64.95;;;29.55;;
68647;SDS011;55632;51.962;16.116;2023-02-15T22:56:51;83.03;;;32.42;;
68647;SDS011;55632;51.962;16.116;2023-02-15T23:01:52;50.60;;;23.50;;
68647;SDS011;55632;51.962;16.116;2023-02-15T23:06:54;64.28;;;24.88;;
68647;SDS011;55632;51.962;16.116;2023-02-15T23:11:58;61.42;;;24.25;;
68647;SDS011;55632;51.962;16.116;2023-02-15T23:17:01;58.45;;;27.52;;
68647;SDS011;55632;51.962;16.116;2023-02-15T23:22:02;40.95;;;18.80;;
68647;SDS011;55632;51.962;16.116;2023-02-15T23:27:03;48.97;;;23.10;;
68647;SDS011;55632;51.962;16.116;2023-02-15T23:32:25;44.35;;;18.30;;
68647;SDS011;55632;51.962;16.116;2023-02-15T23:37:26;47.45;;;19.80;;
68647;SDS011;55632;51.962;16.116;2023-02-15T23:42:28;65.65;;;27.23;;
68647;SDS011;55632;51.962;16.116;2023-02-15T23:47:32;56.67;;;24.30;;
68647;SDS011;55632;51.962;16.116;2023-02-15T23:52:56;48.83;;;21.58;;
68647;SDS011;55632;51.962;16.116;2023-02-15T23:57:57;50.22;;;23.63;;
